Time;durP1;ratioP1;P1;durP2;ratioP2;P2;SDS_P1;SDS_P2;PMS_P1;PMS_P2;Temp;Humidity;BMP_temperature;BMP_pressure;BME280_temperature;BME280_humidity;BME280_pressure;Samples;Min_cycle;Max_cycle;Signal;HPM_P1;HPM_P2
2022/04/22 08:57:22;;;;;;;28.77;17.00;;;;;;;7.86;96.44;100252.44;1762424;81;21515;-65
2022/04/22 08:59:50;;;;;;;27.32;17.65;;;;;;;7.80;96.13;100251.80;1749265;80;21435;-65
2022/04/22 09:02:19;;;;;;;25.88;16.48;;;;;;;7.79;96.08;100252.80;1775903;80;20957;-66
2022/04/22 09:04:48;;;;;;;27.37;17.05;;;;;;;7.79;96.10;100245.98;1772768;80;20981;-65
2022/04/22 09:07:19;;;;;;;33.58;20.32;;;;;;;7.79;95.98;100248.72;1776672;80;20986;-67
2022/04/22 09:09:51;;;;;;;28.27;17.77;;;;;;;7.81;96.00;100256.23;1772752;80;20961;-65
2022/04/22 09:12:24;;;;;;;25.12;16.85;;;;;;;7.82;96.07;100257.92;1751342;80;21001;-64
2022/04/22 09:15:00;;;;;;;30.17;18.32;;;;;;;7.84;96.12;100260.47;1776886;80;21017;-65
2022/04/22 09:17:36;;;;;;;27.07;15.75;;;;;;;7.86;96.15;100260.62;1774611;80;20993;-65
2022/04/22 09:20:11;;;;;;;28.87;16.82;;;;;;;7.86;96.09;100259.77;1772193;80;20982;-65
2022/04/22 09:22:44;;;;;;;28.20;16.42;;;;;;;7.85;95.89;100257.56;1629613;85;21011;-63
2022/04/22 09:25:19;;;;;;;23.30;14.83;;;;;;;7.87;95.83;100265.56;1685625;85;21066;-66
2022/04/22 09:27:48;;;;;;;25.25;16.15;;;;;;;7.89;95.88;100268.44;1684509;85;21432;-64
2022/04/22 09:30:19;;;;;;;25.95;16.12;;;;;;;7.92;95.89;100274.89;1652897;85;21488;-64
2022/04/22 09:32:49;;;;;;;26.90;16.37;;;;;;;7.95;95.83;100275.03;1681426;85;21024;-65
2022/04/22 09:35:25;;;;;;;27.17;16.60;;;;;;;7.95;95.77;100274.52;1653915;85;21071;-68
2022/04/22 09:43:22;;;;;;;27.90;16.93;;;;;;;7.98;95.40;100278.77;1751788;80;20151;-69
2022/04/22 09:45:52;;;;;;;28.95;17.50;;;;;;;7.99;95.50;100276.36;1777182;80;20998;-67
2022/04/22 09:48:21;;;;;;;26.48;16.77;;;;;;;8.03;95.61;100279.57;1774074;79;21016;-64
2022/04/22 09:50:56;;;;;;;29.15;16.82;;;;;;;8.07;95.61;100283.63;1783596;79;20978;-64
2022/04/22 09:53:33;;;;;;;26.33;16.15;;;;;;;8.08;95.52;100285.33;1772550;80;20976;-65
2022/04/22 09:56:08;;;;;;;25.90;16.23;;;;;;;8.11;95.51;100284.95;1726305;81;21020;-64
2022/04/22 09:58:37;;;;;;;28.60;17.20;;;;;;;8.10;95.41;100287.35;1693069;83;21644;-66
2022/04/22 10:01:07;;;;;;;26.77;16.87;;;;;;;8.12;95.28;100297.56;1704513;84;21060;-63
2022/04/22 10:03:39;;;;;;;27.70;17.17;;;;;;;8.12;95.26;100295.69;1703406;83;21028;-67
2022/04/22 10:06:08;;;;;;;28.55;17.77;;;;;;;8.16;95.37;100292.07;1673703;84;21061;-67
2022/04/22 10:08:37;;;;;;;27.15;17.20;;;;;;;8.22;95.45;100296.79;1670907;85;21072;-66
2022/04/22 10:11:07;;;;;;;22.48;15.23;;;;;;;8.26;95.55;100297.59;1710853;83;21060;-65
2022/04/22 10:13:46;;;;;;;26.05;17.20;;;;;;;8.28;95.45;100291.95;1692818;83;21011;-65
2022/04/22 10:16:14;;;;;;;27.93;17.07;;;;;;;8.27;95.26;100293.83;1714858;83;21437;-66
2022/04/22 10:18:45;;;;;;;25.72;16.97;;;;;;;8.26;95.30;100297.59;1714062;83;21432;-67
2022/04/22 10:21:14;;;;;;;26.05;16.65;;;;;;;8.28;95.26;100300.98;1734357;80;21035;-66
2022/04/22 10:23:47;;;;;;;29.82;17.52;;;;;;;8.28;95.14;100303.72;1743547;81;21048;-66
2022/04/22 10:26:17;;;;;;;27.10;16.90;;;;;;;8.30;95.12;100305.41;1691860;83;21479;-66
2022/04/22 10:28:47;;;;;;;27.65;17.02;;;;;;;8.32;95.15;100313.75;1670237;85;21033;-67
2022/04/22 10:31:16;;;;;;;28.05;17.30;;;;;;;8.33;95.09;100316.84;1700161;83;21464;-66
2022/04/22 10:33:46;;;;;;;29.18;16.87;;;;;;;8.33;95.00;100316.84;1709076;83;21441;-66
2022/04/22 10:36:19;;;;;;;25.57;16.55;;;;;;;8.34;95.04;100314.45;1708717;83;21008;-65
2022/04/22 10:38:50;;;;;;;24.77;16.15;;;;;;;8.36;94.91;100316.47;1713387;83;20999;-65
2022/04/22 10:41:20;;;;;;;24.55;16.05;;;;;;;8.37;94.83;100313.23;1712112;83;21024;-65
2022/04/22 10:49:41;;;;;;;23.18;15.43;;;;;;;8.39;94.71;100320.20;1743873;80;21056;-68
2022/04/22 10:52:21;;;;;;;25.55;16.25;;;;;;;8.42;94.65;100317.61;1776104;80;21063;-64
2022/04/22 10:55:00;;;;;;;27.82;17.70;;;;;;;8.42;94.53;100314.37;1746480;80;21003;-66
2022/04/22 10:57:32;;;;;;;30.80;18.05;;;;;;;8.43;94.29;100317.42;1761833;80;21446;-67
2022/04/22 11:00:11;;;;;;;27.00;17.30;;;;;;;8.43;94.24;100315.21;1773794;80;21049;-68
2022/04/22 11:02:42;;;;;;;26.70;16.65;;;;;;;8.44;94.21;100312.81;1666768;84;21088;-72
2022/04/22 11:05:30;;;;;;;25.65;16.23;;;;;;;8.47;94.19;100313.32;1665632;83;21091;-69
2022/04/22 11:08:01;;;;;;;25.30;15.32;;;;;;;8.50;94.23;100315.68;1654562;86;21047;-68
2022/04/22 11:10:53;;;;;;;25.75;17.25;;;;;;;8.54;94.15;100317.52;1664817;85;21500;-67
2022/04/22 11:13:34;;;;;;;25.23;15.70;;;;;;;8.56;94.11;100309.47;1676529;83;21017;-68
2022/04/22 11:16:30;;;;;;;27.20;17.05;;;;;;;8.59;94.12;100304.16;1675343;84;20993;-67
2022/04/22 11:19:24;;;;;;;27.70;16.85;;;;;;;8.61;93.94;100303.97;1630681;85;21079;-67
2022/04/22 11:21:58;;;;;;;27.95;18.35;;;;;;;8.62;93.81;100306.51;1588783;87;21490;-68
2022/04/22 11:24:31;;;;;;;26.37;17.30;;;;;;;8.63;93.66;100307.36;1618477;88;21038;-64
2022/04/22 11:27:14;;;;;;;72.85;46.85;;;;;;;8.63;93.59;100315.03;1597425;88;21042;-67
2022/04/22 11:29:44;;;;;;;28.45;17.95;;;;;;;8.67;93.65;100308.67;1618096;88;21050;-68
2022/04/22 11:32:21;;;;;;;25.82;16.10;;;;;;;8.70;93.67;100305.57;1597350;88;21470;-65
2022/04/22 11:35:21;;;;;;;26.73;16.60;;;;;;;8.71;93.59;100295.82;1617951;88;21018;-65
2022/04/22 11:38:00;;;;;;;25.23;17.07;;;;;;;8.73;93.44;100295.63;1668597;84;21415;-66
2022/04/22 11:40:28;;;;;;;27.77;17.20;;;;;;;8.76;93.38;100303.45;1739222;80;21041;-66
2022/04/22 11:42:59;;;;;;;25.90;17.20;;;;;;;8.79;93.36;100299.83;1755784;80;21368;-64
2022/04/22 11:45:28;;;;;;;26.62;16.97;;;;;;;8.82;93.30;100299.97;1748437;81;21454;-65
2022/04/22 11:48:00;;;;;;;26.25;17.05;;;;;;;8.85;93.16;100303.17;1759239;80;21400;-65
2022/04/22 11:50:31;;;;;;;23.35;16.10;;;;;;;8.87;93.14;100300.24;1751064;80;21033;-65
2022/04/22 11:53:02;;;;;;;24.75;15.98;;;;;;;8.90;93.25;100299.34;1749137;80;21006;-66
2022/04/22 11:55:32;;;;;;;21.07;15.10;;;;;;;8.93;93.14;100306.32;1750474;80;21453;-66
2022/04/22 11:58:02;;;;;;;22.13;15.05;;;;;;;8.95;92.80;100303.39;1799639;79;20988;-64
2022/04/22 12:06:13;;;;;;;25.23;15.85;;;;;;;8.99;92.35;100300.61;1803716;79;21460;-66
2022/04/22 12:09:01;;;;;;;22.93;15.28;;;;;;;9.01;92.41;100296.66;1726685;82;21005;-66
2022/04/22 12:11:31;;;;;;;23.92;16.05;;;;;;;9.08;92.56;100296.73;1805217;79;21404;-64
2022/04/22 12:14:01;;;;;;;23.25;15.23;;;;;;;9.14;92.57;100290.54;1699219;84;21485;-67
2022/04/22 12:16:32;;;;;;;24.67;15.20;;;;;;;9.17;92.30;100287.42;1781546;79;20972;-65
2022/04/22 12:19:03;;;;;;;23.25;16.05;;;;;;;9.24;92.41;100284.77;1720078;82;21498;-67
2022/04/22 12:21:34;;;;;;;23.92;15.58;;;;;;;9.30;92.36;100277.17;1795782;79;21023;-66
2022/04/22 12:24:05;;;;;;;23.83;15.15;;;;;;;9.36;92.09;100284.59;1795729;79;21001;-65
2022/04/22 12:26:39;;;;;;;21.17;15.53;;;;;;;9.41;92.04;100284.34;1722518;83;21044;-66
2022/04/22 12:29:19;;;;;;;19.15;13.93;;;;;;;9.47;91.97;100275.89;1725864;82;20984;-65
2022/04/22 12:31:51;;;;;;;22.35;15.03;;;;;;;9.52;91.81;100273.42;1800988;79;21000;-66
2022/04/22 12:34:34;;;;;;;19.52;13.72;;;;;;;9.57;91.40;100281.89;1804571;79;21000;-67
2022/04/22 12:37:06;;;;;;;22.13;14.87;;;;;;;9.61;91.16;100276.36;1729692;82;21468;-66
2022/04/22 12:39:44;;;;;;;21.37;14.60;;;;;;;9.66;90.92;100268.41;1776902;79;21537;-66
2022/04/22 12:42:22;;;;;;;24.95;14.50;;;;;;;9.68;90.45;100270.95;1726632;82;21019;-69
2022/04/22 12:53:50;;;;;;;22.40;13.13;;;;;;;9.74;88.87;100281.96;1727442;82;21032;-67
2022/04/22 12:56:26;;;;;;;20.82;13.10;;;;;;;9.77;88.84;100265.19;1801910;79;21008;-65
2022/04/22 12:58:56;;;;;;;17.52;12.20;;;;;;;9.81;88.92;100265.12;1773780;80;20992;-66
2022/04/22 13:01:36;;;;;;;18.05;11.95;;;;;;;9.86;88.71;100257.69;1771837;80;21027;-65
2022/04/22 13:04:07;;;;;;;20.05;13.62;;;;;;;9.89;88.09;100250.45;1751837;80;21057;-65
2022/04/22 13:06:43;;;;;;;20.10;13.20;;;;;;;9.92;87.95;100251.42;1773964;79;20993;-66
2022/04/22 13:09:15;;;;;;;19.80;13.30;;;;;;;9.97;87.86;100256.31;1749281;81;20996;-65
2022/04/22 13:11:43;;;;;;;20.90;13.88;;;;;;;10.01;87.63;100250.77;1773028;80;21019;-66
2022/04/22 13:14:12;;;;;;;18.45;12.88;;;;;;;10.04;87.47;100255.32;1773003;80;21428;-67
2022/04/22 13:16:42;;;;;;;17.73;12.70;;;;;;;10.06;86.96;100249.12;1765533;81;21022;-67
2022/04/22 13:19:14;;;;;;;20.43;13.65;;;;;;;10.08;86.77;100249.77;1680811;85;21149;-65
2022/04/22 13:21:44;;;;;;;18.98;12.78;;;;;;;10.11;86.88;100246.64;1679185;85;21042;-66
2022/04/22 13:24:13;;;;;;;18.42;11.80;;;;;;;10.16;87.15;100244.15;1711638;83;21442;-66
2022/04/22 13:26:44;;;;;;;17.60;12.63;;;;;;;10.20;86.93;100240.53;1689497;84;21049;-66
2022/04/22 13:29:13;;;;;;;19.42;13.58;;;;;;;10.24;86.81;100245.08;1691613;83;21054;-65
2022/04/22 13:31:43;;;;;;;17.27;12.60;;;;;;;10.26;86.29;100252.57;1707812;83;21005;-67
2022/04/22 13:34:13;;;;;;;16.97;11.75;;;;;;;10.26;86.08;100247.09;1685930;82;21011;-65
2022/04/22 13:36:42;;;;;;;18.32;12.05;;;;;;;10.30;85.90;100238.80;1720069;80;21471;-67
2022/04/22 13:39:11;;;;;;;17.52;12.85;;;;;;;10.30;85.79;100234.17;1741765;80;21024;-64
2022/04/22 13:41:41;;;;;;;17.67;12.47;;;;;;;10.32;85.55;100234.81;1771219;80;21024;-67
2022/04/22 13:44:10;;;;;;;19.10;12.58;;;;;;;10.35;85.60;100233.57;1772717;80;20992;-65
2022/04/22 13:52:21;;;;;;;17.47;12.67;;;;;;;10.42;84.68;100233.97;1748127;80;21032;-64
2022/04/22 13:54:52;;;;;;;18.15;12.75;;;;;;;10.43;84.74;100237.03;1738889;81;21405;-63
2022/04/22 13:57:20;;;;;;;17.75;13.08;;;;;;;10.46;84.85;100237.16;1771910;79;21083;-68
2022/04/22 13:59:51;;;;;;;15.88;10.43;;;;;;;10.48;84.97;100230.42;1705056;82;21519;-64
2022/04/22 14:02:21;;;;;;;16.67;11.28;;;;;;;10.51;84.71;100238.77;1726777;82;21016;-65
2022/04/22 14:04:50;;;;;;;16.30;11.20;;;;;;;10.50;84.41;100235.70;1728399;82;21040;-66
2022/04/22 14:07:20;;;;;;;16.95;12.28;;;;;;;10.51;84.35;100230.55;1671600;86;21004;-72
2022/04/22 14:09:50;;;;;;;17.32;12.75;;;;;;;10.52;84.36;100230.02;1670517;85;21008;-66
2022/04/22 14:12:20;;;;;;;16.52;10.90;;;;;;;10.52;84.28;100232.24;1672071;86;21064;-65
2022/04/22 14:14:53;;;;;;;18.90;11.00;;;;;;;10.54;84.22;100223.82;1668049;85;20988;-65
2022/04/22 14:17:24;;;;;;;16.67;12.37;;;;;;;10.53;83.84;100225.72;1650070;86;21449;-64
2022/04/22 14:19:53;;;;;;;17.12;12.18;;;;;;;10.53;83.92;100216.13;1670213;85;21043;-65
2022/04/22 14:22:24;;;;;;;19.52;11.93;;;;;;;10.55;83.94;100214.03;1598205;89;21043;-67
2022/04/22 14:24:59;;;;;;;17.15;11.38;;;;;;;10.56;83.92;100215.72;1640670;84;20999;-64
2022/04/22 14:27:28;;;;;;;14.53;10.15;;;;;;;10.57;83.94;100209.72;1707104;84;21051;-65
2022/04/22 14:29:58;;;;;;;15.55;12.30;;;;;;;10.59;83.91;100215.31;1707076;83;21053;-65
2022/04/22 14:32:28;;;;;;;19.12;12.23;;;;;;;10.63;83.78;100206.16;1707160;83;21016;-65
2022/04/22 14:34:57;;;;;;;18.05;11.90;;;;;;;10.61;83.58;100204.16;1707162;83;21399;-65
2022/04/22 14:37:28;;;;;;;16.25;11.63;;;;;;;10.61;83.67;100198.67;1707115;83;21007;-64
2022/04/22 14:39:57;;;;;;;17.60;11.97;;;;;;;10.63;83.48;100200.69;1717441;81;21031;-66
2022/04/22 14:42:26;;;;;;;17.02;11.48;;;;;;;10.63;83.62;100197.95;1775987;80;20989;-70
2022/04/22 14:44:55;;;;;;;17.17;12.07;;;;;;;10.65;83.55;100202.70;1785819;79;21016;-71
2022/04/22 14:47:25;;;;;;;18.50;12.00;;;;;;;10.65;83.74;100199.44;1776415;80;20961;-69
2022/04/22 14:49:54;;;;;;;17.42;12.63;;;;;;;10.70;83.95;100200.20;1775598;80;21004;-68
2022/04/22 14:52:23;;;;;;;18.52;12.03;;;;;;;10.74;84.00;100194.10;1773319;80;21421;-69
2022/04/22 14:54:52;;;;;;;15.15;11.53;;;;;;;10.76;83.64;100199.38;1776285;80;21401;-68
2022/04/22 14:57:22;;;;;;;15.65;11.20;;;;;;;10.79;83.54;100201.19;1763331;80;21071;-69
2022/04/22 14:59:53;;;;;;;16.20;11.90;;;;;;;10.82;83.54;100197.19;1682588;83;21067;-68
2022/04/22 15:02:22;;;;;;;20.95;12.82;;;;;;;10.87;83.62;100195.20;1683958;84;21043;-69
2022/04/22 15:04:54;;;;;;;19.98;12.95;;;;;;;10.88;83.40;100193.63;1711670;82;21512;-70
2022/04/22 15:07:26;;;;;;;18.73;12.73;;;;;;;10.88;83.33;100197.74;1710472;83;20992;-70
2022/04/22 15:09:54;;;;;;;17.75;11.65;;;;;;;10.88;83.21;100189.52;1708075;83;21020;-70
2022/04/22 15:12:23;;;;;;;15.45;10.90;;;;;;;10.89;83.04;100190.37;1712851;83;21019;-71
2022/04/22 15:14:53;;;;;;;17.60;13.20;;;;;;;10.87;82.83;100193.31;1715012;83;21051;-69
2022/04/22 15:24:09;;;;;;;16.55;11.60;;;;;;;10.85;82.69;100191.30;1722883;80;21412;-69
2022/04/22 15:25:29;;;;;;;15.75;10.75;;;;;;;10.89;82.86;100188.47;1745872;81;21527;-70
2022/04/22 15:28:00;;;;;;;17.75;11.40;;;;;;;10.89;82.24;100169.28;1705898;83;21011;-67
2022/04/22 15:31:06;;;;;;;18.00;12.00;;;;;;;10.88;81.82;100175.81;1683569;83;21126;-68
2022/04/22 15:33:37;;;;;;;15.05;11.73;;;;;;;10.86;81.82;100173.80;1621331;88;21044;-67
2022/04/22 15:36:06;;;;;;;18.67;11.73;;;;;;;10.86;81.76;100177.07;1695435;83;21047;-67
2022/04/22 15:38:37;;;;;;;19.17;11.22;;;;;;;10.84;81.70;100166.84;1634355;86;21069;-67
2022/04/22 15:41:13;;;;;;;15.80;11.33;;;;;;;10.85;81.78;100166.63;1590242;89;21067;-67
2022/04/22 15:43:43;;;;;;;16.52;12.43;;;;;;;10.87;81.80;100168.64;1597688;89;21071;-69
2022/04/22 15:46:12;;;;;;;18.65;11.85;;;;;;;10.86;81.74;100168.33;1608968;86;21021;-67
2022/04/22 15:48:41;;;;;;;18.40;12.50;;;;;;;10.85;81.86;100161.16;1631697;86;21029;-67
2022/04/22 15:51:10;;;;;;;17.80;11.78;;;;;;;10.86;81.88;100164.22;1648990;86;21426;-67
2022/04/22 15:53:42;;;;;;;17.30;12.05;;;;;;;10.86;81.92;100162.00;1647943;86;21063;-70
2022/04/22 15:56:12;;;;;;;16.80;12.13;;;;;;;10.87;82.05;100156.84;1623104;87;21051;-69
2022/04/22 15:58:47;;;;;;;18.15;12.98;;;;;;;10.88;82.18;100162.11;1683642;81;21016;-70
2022/04/22 16:01:15;;;;;;;17.10;12.30;;;;;;;10.91;82.18;100164.44;1757285;80;20992;-69
2022/04/22 16:03:51;;;;;;;21.00;12.85;;;;;;;10.91;82.15;100157.59;1764865;80;20969;-69
2022/04/22 16:06:21;;;;;;;16.97;11.93;;;;;;;10.92;82.05;100161.17;1733635;81;21087;-69
2022/04/22 16:08:52;;;;;;;16.70;11.95;;;;;;;10.91;82.03;100154.84;1674523;85;21024;-70
2022/04/22 16:17:01;;;;;;;18.50;13.15;;;;;;;10.87;81.79;100143.98;1632125;87;21058;-70
2022/04/22 16:19:30;;;;;;;14.60;11.18;;;;;;;10.87;81.76;100145.34;1599520;89;21452;-68
2022/04/22 16:22:05;;;;;;;16.60;11.65;;;;;;;10.85;81.70;100141.13;1593034;89;21067;-70
2022/04/22 16:24:34;;;;;;;16.17;11.90;;;;;;;10.85;81.69;100142.49;1632191;87;21122;-69
2022/04/22 16:27:05;;;;;;;17.42;13.00;;;;;;;10.82;81.57;100135.53;1674778;83;21455;-67
2022/04/22 16:29:35;;;;;;;17.35;12.35;;;;;;;10.81;81.67;100135.20;1714915;83;21024;-68
2022/04/22 16:32:04;;;;;;;15.70;11.00;;;;;;;10.80;81.68;100139.00;1712737;83;21059;-67
2022/04/22 16:34:35;;;;;;;18.00;11.53;;;;;;;10.80;81.68;100143.11;1716456;83;21503;-67
2022/04/22 16:37:04;;;;;;;14.43;10.70;;;;;;;10.80;81.52;100139.00;1683910;83;21043;-67
2022/04/22 16:39:33;;;;;;;16.17;11.15;;;;;;;10.77;81.30;100138.04;1713541;83;21052;-69
2022/04/22 16:42:04;;;;;;;15.25;10.90;;;;;;;10.74;81.20;100142.56;1750882;80;20992;-68
2022/04/22 16:44:36;;;;;;;14.98;10.45;;;;;;;10.72;80.95;100142.77;1769861;80;21396;-67
2022/04/22 16:47:06;;;;;;;11.93;9.33;;;;;;;10.69;80.91;100134.11;1740136;80;21448;-67
2022/04/22 16:49:35;;;;;;;15.25;10.50;;;;;;;10.67;80.54;100134.31;1769993;81;20980;-68
2022/04/22 16:52:05;;;;;;;15.48;10.60;;;;;;;10.65;80.44;100130.94;1751345;80;21000;-66
2022/04/22 16:54:36;;;;;;;13.72;9.85;;;;;;;10.62;80.51;100131.87;1767706;80;21484;-69
2022/04/22 16:57:06;;;;;;;17.25;9.98;;;;;;;10.58;80.70;100129.22;1764528;80;20996;-68
2022/04/22 16:59:35;;;;;;;12.63;9.95;;;;;;;10.56;80.84;100138.17;1768810;80;21385;-70
2022/04/22 17:02:05;;;;;;;17.57;11.18;;;;;;;10.56;80.90;100134.06;1767595;80;21039;-66
2022/04/22 17:04:36;;;;;;;14.58;10.38;;;;;;;10.54;80.90;100129.31;1707683;83;21405;-68
2022/04/22 17:07:06;;;;;;;14.50;10.63;;;;;;;10.52;80.94;100136.36;1711154;83;21030;-68
2022/04/22 17:09:34;;;;;;;15.38;10.35;;;;;;;10.50;80.84;100127.50;1697730;83;21045;-68
2022/04/22 17:12:05;;;;;;;15.98;10.43;;;;;;;10.50;80.94;100130.77;1702288;83;20996;-68
2022/04/22 17:23:00;;;;;;;14.15;10.40;;;;;;;10.43;81.32;100141.69;1750188;81;21028;-68
2022/04/22 17:25:29;;;;;;;16.87;11.68;;;;;;;10.41;81.29;100136.42;1764926;81;20988;-69
2022/04/22 17:28:00;;;;;;;15.15;10.90;;;;;;;10.38;81.12;100135.42;1766140;80;21004;-67
2022/04/22 17:30:29;;;;;;;16.05;10.58;;;;;;;10.38;80.97;100134.58;1747105;81;21000;-69
2022/04/22 17:33:00;;;;;;;16.75;10.40;;;;;;;10.37;81.03;100135.09;1708961;82;21031;-67
2022/04/22 17:35:29;;;;;;;16.20;11.53;;;;;;;10.36;81.32;100143.52;1695723;83;21044;-67
2022/04/22 17:37:59;;;;;;;16.67;11.60;;;;;;;10.36;81.23;100139.41;1652038;85;21056;-66
2022/04/22 17:40:28;;;;;;;15.72;11.53;;;;;;;10.35;81.18;100134.45;1657256;85;21485;-65
2022/04/22 17:42:58;;;;;;;16.87;11.43;;;;;;;10.33;81.21;100133.81;1678635;85;21459;-67
2022/04/22 17:45:29;;;;;;;13.80;10.95;;;;;;;10.31;81.26;100140.02;1680174;85;21027;-67
2022/04/22 17:47:58;;;;;;;18.32;12.60;;;;;;;10.31;81.35;100135.06;1690483;83;21059;-66
2022/04/22 17:50:28;;;;;;;18.42;12.03;;;;;;;10.29;81.45;100129.79;1708972;80;21008;-68
2022/04/22 17:52:56;;;;;;;21.45;13.62;;;;;;;10.29;81.65;100131.69;1766519;80;20988;-65
2022/04/22 17:55:27;;;;;;;16.70;12.50;;;;;;;10.27;81.79;100129.67;1736519;82;20992;-65
2022/04/22 17:57:55;;;;;;;17.32;11.50;;;;;;;10.24;81.78;100125.45;1775107;80;21452;-69
2022/04/22 18:00:24;;;;;;;15.43;11.70;;;;;;;10.23;81.85;100134.70;1770621;80;21362;-67
2022/04/22 18:02:53;;;;;;;18.27;12.75;;;;;;;10.24;82.02;100129.55;1775179;80;21004;-68
2022/04/22 18:05:22;;;;;;;16.62;12.03;;;;;;;10.25;82.11;100131.25;1769051;80;20988;-67
2022/04/22 18:07:55;;;;;;;16.90;13.38;;;;;;;10.25;82.10;100131.77;1767389;80;21436;-68
2022/04/22 18:10:27;;;;;;;16.77;12.20;;;;;;;10.23;82.16;100125.65;1774040;80;21023;-67
2022/04/22 18:12:58;;;;;;;15.40;11.70;;;;;;;10.21;82.06;100135.44;1678612;83;21078;-68
2022/04/22 18:18:15;;;;;;;17.10;13.05;;;;;;;10.23;81.96;100123.75;1702810;83;21012;-67
2022/04/22 18:20:44;;;;;;;19.90;13.35;;;;;;;10.23;82.08;100132.50;1706487;83;21404;-68
2022/04/22 18:23:13;;;;;;;19.48;13.68;;;;;;;10.23;82.23;100133.86;1702444;83;21020;-66
2022/04/22 18:25:44;;;;;;;15.28;12.03;;;;;;;10.22;82.34;100130.80;1679625;85;21044;-68
2022/04/22 18:28:13;;;;;;;20.40;12.60;;;;;;;10.21;82.33;100127.22;1682096;85;21031;-69
2022/04/22 18:30:44;;;;;;;19.50;13.88;;;;;;;10.21;82.44;100128.59;1674214;83;21429;-69
2022/04/22 18:33:13;;;;;;;19.40;13.98;;;;;;;10.20;82.32;100136.48;1749089;80;20988;-66
2022/04/22 18:35:42;;;;;;;18.05;13.13;;;;;;;10.18;82.44;100133.06;1774647;80;21110;-68
2022/04/22 18:38:11;;;;;;;22.40;14.70;;;;;;;10.17;82.35;100136.33;1749306;80;20991;-67
2022/04/22 18:40:39;;;;;;;17.75;12.60;;;;;;;10.14;82.35;100130.41;1771961;80;21037;-68
2022/04/22 18:43:10;;;;;;;18.23;12.65;;;;;;;10.13;82.35;100128.20;1764167;80;21421;-69
2022/04/22 18:45:39;;;;;;;17.50;14.00;;;;;;;10.14;82.46;100130.41;1769146;81;21008;-68
2022/04/22 18:48:08;;;;;;;17.35;13.40;;;;;;;10.10;82.50;100118.17;1771012;80;21011;-65
2022/04/22 18:50:38;;;;;;;18.77;14.40;;;;;;;10.11;82.72;100119.86;1769804;80;21012;-67
2022/04/22 18:53:08;;;;;;;19.57;14.30;;;;;;;10.12;82.77;100118.30;1770514;80;21027;-67
2022/04/22 18:55:40;;;;;;;17.75;12.33;;;;;;;10.12;82.79;100126.51;1764881;80;21389;-68
2022/04/22 18:58:11;;;;;;;19.25;12.28;;;;;;;10.11;82.80;100125.34;1763171;80;20996;-68
2022/04/22 19:00:41;;;;;;;16.37;12.43;;;;;;;10.10;82.82;100120.39;1766746;80;21027;-69
2022/04/22 19:03:10;;;;;;;16.12;13.00;;;;;;;10.10;82.76;100118.17;1740689;81;21043;-68
2022/04/22 19:05:44;;;;;;;19.42;14.00;;;;;;;10.09;82.84;100116.48;1773075;81;21028;-68
2022/04/22 19:08:20;;;;;;;20.83;14.30;;;;;;;10.10;82.74;100116.80;1763900;81;21000;-66
2022/04/22 19:10:51;;;;;;;20.92;13.25;;;;;;;10.11;82.77;100119.86;1765749;80;21392;-70
2022/04/22 19:13:22;;;;;;;24.67;13.25;;;;;;;10.11;82.84;100125.34;1699940;84;21468;-69
2022/04/22 19:15:52;;;;;;;20.65;13.75;;;;;;;10.09;82.83;100115.12;1677880;84;21445;-70
2022/04/22 19:18:21;;;;;;;17.87;12.93;;;;;;;10.09;82.88;100108.27;1677429;84;21048;-68
2022/04/22 19:20:51;;;;;;;19.52;13.48;;;;;;;10.10;82.97;100108.07;1700102;84;21461;-67
2022/04/22 19:23:20;;;;;;;18.65;12.78;;;;;;;10.10;82.94;100104.48;1699924;84;21432;-67
2022/04/22 19:25:48;;;;;;;20.50;12.93;;;;;;;10.10;82.96;100109.96;1700041;84;21028;-67
2022/04/22 19:28:19;;;;;;;16.07;11.63;;;;;;;10.09;82.85;100092.69;1700731;84;21052;-70
2022/04/22 19:30:48;;;;;;;16.77;12.18;;;;;;;10.10;82.81;100107.22;1714078;80;21414;-67
2022/04/22 19:33:19;;;;;;;18.27;12.95;;;;;;;10.09;82.95;100098.69;1764555;80;20976;-68
2022/04/22 19:35:48;;;;;;;19.95;12.75;;;;;;;10.10;83.07;100093.53;1768192;80;21011;-68
2022/04/22 19:41:04;;;;;;;15.65;11.65;;;;;;;10.08;82.97;100100.58;1766428;80;21421;-69
2022/04/22 19:43:34;;;;;;;15.35;11.03;;;;;;;10.08;83.01;100104.69;1733604;82;21407;-66
2022/04/22 19:46:04;;;;;;;18.27;12.70;;;;;;;10.10;83.08;100105.86;1761572;80;21444;-67
2022/04/22 19:48:35;;;;;;;15.80;12.37;;;;;;;10.07;83.14;100105.73;1777054;80;21023;-67
2022/04/22 19:51:04;;;;;;;19.80;13.00;;;;;;;10.07;83.21;100113.11;1769967;80;21035;-65
2022/04/22 19:53:35;;;;;;;16.30;12.33;;;;;;;10.05;83.29;100102.88;1770303;80;20984;-67
2022/04/22 19:56:06;;;;;;;18.77;12.40;;;;;;;10.05;83.34;100107.83;1764167;80;21036;-68
2022/04/22 19:58:35;;;;;;;18.65;11.22;;;;;;;10.06;83.33;100110.05;1765841;80;21472;-65
2022/04/22 20:01:03;;;;;;;17.67;12.70;;;;;;;10.04;83.42;100102.56;1767400;80;21069;-66
2022/04/22 20:03:32;;;;;;;18.35;12.53;;;;;;;10.03;83.48;100098.13;1766938;81;21444;-67
2022/04/22 20:06:02;;;;;;;16.73;12.35;;;;;;;10.03;83.62;100089.39;1766921;80;21074;-67
2022/04/22 20:08:34;;;;;;;15.78;11.95;;;;;;;10.03;83.63;100092.13;1747941;80;21004;-66
2022/04/22 20:11:04;;;;;;;17.02;11.30;;;;;;;10.02;83.54;100088.23;1765883;81;21031;-65
2022/04/22 20:13:35;;;;;;;13.98;10.72;;;;;;;10.02;83.43;100090.97;1763925;80;20984;-66
2022/04/22 20:16:05;;;;;;;16.70;11.75;;;;;;;10.02;83.43;100090.97;1740683;81;21432;-65
2022/04/22 20:18:34;;;;;;;14.90;10.53;;;;;;;10.00;83.38;100083.48;1766617;80;21420;-64
2022/04/22 20:21:04;;;;;;;19.48;11.83;;;;;;;9.99;83.31;100092.21;1763874;81;21477;-65
2022/04/22 20:23:34;;;;;;;15.93;10.23;;;;;;;9.97;83.33;100087.47;1770213;80;21039;-67
2022/04/22 20:26:02;;;;;;;16.52;10.55;;;;;;;9.97;83.27;100086.62;1738302;81;21039;-64
2022/04/22 20:28:31;;;;;;;15.32;9.73;;;;;;;9.96;83.23;100093.14;1765510;80;20980;-65
2022/04/22 20:31:02;;;;;;;18.00;10.18;;;;;;;9.95;83.31;100091.45;1764042;80;21000;-65
2022/04/22 20:33:32;;;;;;;17.85;10.55;;;;;;;9.95;83.41;100095.55;1745066;80;21436;-65
2022/04/22 20:41:35;;;;;;;13.05;9.50;;;;;;;9.95;83.48;100089.55;1745709;80;21436;-66
2022/04/22 20:44:06;;;;;;;14.55;8.53;;;;;;;9.96;83.41;100078.09;1773958;80;21432;-66
2022/04/22 20:46:35;;;;;;;14.28;9.45;;;;;;;9.96;83.38;100076.72;1769619;80;20976;-64
2022/04/22 20:49:05;;;;;;;14.25;8.83;;;;;;;9.95;83.23;100090.08;1774075;80;21012;-65
2022/04/22 20:51:34;;;;;;;12.47;9.00;;;;;;;9.94;83.17;100083.77;1769092;80;20992;-64
2022/04/22 20:54:04;;;;;;;14.68;9.08;;;;;;;9.94;83.02;100094.70;1770009;80;21059;-64
2022/04/22 20:56:37;;;;;;;14.13;8.45;;;;;;;9.93;82.92;100093.55;1769969;80;20991;-65
2022/04/22 20:59:06;;;;;;;15.38;8.18;;;;;;;9.92;82.44;100091.33;1770051;80;20984;-66
2022/04/22 21:01:36;;;;;;;11.97;8.35;;;;;;;9.94;82.50;100095.23;1770409;80;20973;-65
2022/04/22 21:04:08;;;;;;;12.68;8.73;;;;;;;9.91;82.38;100086.90;1767745;80;21001;-66
2022/04/22 21:06:37;;;;;;;14.15;9.10;;;;;;;9.92;82.36;100083.64;1771979;80;20968;-65
2022/04/22 21:09:06;;;;;;;11.28;8.30;;;;;;;9.90;82.34;100077.00;1767156;80;21436;-66
2022/04/22 21:11:37;;;;;;;16.25;8.43;;;;;;;9.89;82.05;100077.20;1731102;82;21020;-66
2022/04/22 21:14:08;;;;;;;11.75;7.78;;;;;;;9.89;82.05;100073.09;1729757;82;21079;-66
2022/04/22 21:16:37;;;;;;;12.43;8.33;;;;;;;9.88;82.07;100076.36;1717116;82;21007;-65
2022/04/22 21:19:05;;;;;;;12.80;7.95;;;;;;;9.87;82.16;100068.35;1625893;86;21031;-67
2022/04/22 21:21:35;;;;;;;13.78;9.00;;;;;;;9.85;82.14;100065.29;1656296;86;21038;-64
2022/04/22 21:24:06;;;;;;;18.37;8.95;;;;;;;9.82;82.13;100060.22;1652955;86;21447;-66
2022/04/22 21:26:35;;;;;;;12.37;8.78;;;;;;;9.81;82.24;100056.31;1547545;92;21488;-64
2022/04/22 21:29:05;;;;;;;11.73;8.00;;;;;;;9.81;82.19;100053.06;1484411;95;21046;-67
2022/04/22 21:31:35;;;;;;;13.45;8.50;;;;;;;9.81;82.14;100053.06;1527617;92;21093;-66